SHT15B EGLL-EGJJ
Flight info
| Callsign | SHT15B |
|---|---|
| Flight time | 0h 39m |
| Altitude | 23000 |
| Route | GASGU N866 SAM/N0389F220 N63 LELNA |
| Aircraft | A320/M-SDE3FGHIRWY/LB1 |
Departure
| Time | 2026-05-07 15:15 |
|---|---|
| Airport | London Heathrow Airport (EGLL) |
Arrival
| Time | 2026-05-07 15:54 |
|---|---|
| Airport | Jersey Airport (EGJJ) |
| Time | Latitude | Longitude | Altitude | Speed | Heading |
|---|---|---|---|---|---|
| 2026-05-07 14:33 | 51.47134 | -0.48619 | 90 ft | 0 kts | 269° |
| 2026-05-07 15:01 | 51.47134 | -0.48598 | 91 ft | 4 kts | 268° |
| 2026-05-07 15:01 | 51.47135 | -0.48555 | 90 ft | 4 kts | 263° |
| 2026-05-07 15:02 | 51.47140 | -0.48513 | 87 ft | 4 kts | 251° |
| 2026-05-07 15:02 | 51.47152 | -0.48479 | 90 ft | 4 kts | 207° |
| 2026-05-07 15:02 | 51.47160 | -0.48473 | 88 ft | 0 kts | 180° |
| 2026-05-07 15:07 | 51.47146 | -0.48473 | 88 ft | 4 kts | 180° |
| 2026-05-07 15:08 | 51.47104 | -0.48473 | 86 ft | 9 kts | 180° |
| 2026-05-07 15:08 | 51.47075 | -0.48472 | 86 ft | 3 kts | 179° |
| 2026-05-07 15:08 | 51.47039 | -0.48471 | 86 ft | 8 kts | 178° |
| 2026-05-07 15:08 | 51.46971 | -0.48469 | 88 ft | 9 kts | 179° |
| 2026-05-07 15:09 | 51.46915 | -0.48468 | 88 ft | 3 kts | 179° |
| 2026-05-07 15:09 | 51.46886 | -0.48468 | 86 ft | 7 kts | 180° |
| 2026-05-07 15:09 | 51.46849 | -0.48468 | 86 ft | 4 kts | 180° |
| 2026-05-07 15:09 | 51.46832 | -0.48468 | 86 ft | 5 kts | 180° |
| 2026-05-07 15:10 | 51.46784 | -0.48468 | 86 ft | 9 kts | 180° |
| 2026-05-07 15:10 | 51.46703 | -0.48468 | 86 ft | 12 kts | 180° |
| 2026-05-07 15:10 | 51.46643 | -0.48467 | 86 ft | 8 kts | 180° |
| 2026-05-07 15:10 | 51.46604 | -0.48467 | 86 ft | 4 kts | 179° |
| 2026-05-07 15:11 | 51.46596 | -0.48467 | 86 ft | 0 kts | 179° |
| 2026-05-07 15:12 | 51.46576 | -0.48466 | 86 ft | 5 kts | 179° |
| 2026-05-07 15:12 | 51.46523 | -0.48463 | 87 ft | 9 kts | 173° |
| 2026-05-07 15:12 | 51.46480 | -0.48398 | 88 ft | 8 kts | 102° |
| 2026-05-07 15:13 | 51.46479 | -0.48375 | 88 ft | 0 kts | 89° |
| 2026-05-07 15:13 | 51.46479 | -0.48369 | 88 ft | 3 kts | 89° |
| 2026-05-07 15:14 | 51.46481 | -0.48008 | 87 ft | 69 kts | 90° |
| 2026-05-07 15:14 | 51.46485 | -0.46913 | 93 ft | 126 kts | 89° |
| 2026-05-07 15:14 | 51.46495 | -0.45253 | 92 ft | 168 kts | 90° |
| 2026-05-07 15:14 | 51.46486 | -0.43274 | 520 ft | 174 kts | 94° |
| 2026-05-07 15:15 | 51.46150 | -0.41505 | 1453 ft | 160 kts | 119° |
| 2026-05-07 15:15 | 51.45580 | -0.39980 | 2010 ft | 166 kts | 123° |
| 2026-05-07 15:15 | 51.44911 | -0.38319 | 2291 ft | 188 kts | 124° |
| 2026-05-07 15:15 | 51.44159 | -0.36502 | 2631 ft | 205 kts | 124° |
| 2026-05-07 15:16 | 51.43251 | -0.34630 | 2974 ft | 225 kts | 139° |
| 2026-05-07 15:16 | 51.41863 | -0.33235 | 3408 ft | 249 kts | 161° |
| 2026-05-07 15:16 | 51.40118 | -0.32827 | 4173 ft | 258 kts | 185° |
| 2026-05-07 15:16 | 51.38378 | -0.33601 | 5101 ft | 263 kts | 209° |
| 2026-05-07 15:17 | 51.36906 | -0.35377 | 5777 ft | 268 kts | 221° |
| 2026-05-07 15:17 | 51.35524 | -0.37366 | 5971 ft | 267 kts | 223° |
| 2026-05-07 15:17 | 51.34154 | -0.39374 | 6004 ft | 267 kts | 223° |
| 2026-05-07 15:17 | 51.32790 | -0.41380 | 6005 ft | 268 kts | 223° |
| 2026-05-07 15:18 | 51.31436 | -0.43444 | 6005 ft | 270 kts | 229° |
| 2026-05-07 15:18 | 51.30390 | -0.45926 | 6007 ft | 271 kts | 244° |
| 2026-05-07 15:18 | 51.29769 | -0.48761 | 6009 ft | 271 kts | 255° |
| 2026-05-07 15:18 | 51.29268 | -0.51619 | 6008 ft | 271 kts | 254° |
| 2026-05-07 15:19 | 51.28750 | -0.54509 | 6010 ft | 271 kts | 254° |
| 2026-05-07 15:19 | 51.28226 | -0.57398 | 6009 ft | 271 kts | 253° |
| 2026-05-07 15:19 | 51.27681 | -0.60280 | 6009 ft | 271 kts | 253° |
| 2026-05-07 15:19 | 51.27121 | -0.63151 | 6010 ft | 271 kts | 252° |
| 2026-05-07 15:20 | 51.26558 | -0.66017 | 6010 ft | 271 kts | 252° |
| 2026-05-07 15:20 | 51.25992 | -0.68888 | 6009 ft | 271 kts | 252° |
| 2026-05-07 15:20 | 51.25429 | -0.71756 | 6009 ft | 271 kts | 253° |
| 2026-05-07 15:20 | 51.24865 | -0.74631 | 6010 ft | 271 kts | 253° |
| 2026-05-07 15:21 | 51.24304 | -0.77502 | 6009 ft | 271 kts | 253° |
| 2026-05-07 15:21 | 51.23740 | -0.80375 | 6031 ft | 272 kts | 252° |
| 2026-05-07 15:21 | 51.23175 | -0.83231 | 6789 ft | 274 kts | 252° |
| 2026-05-07 15:21 | 51.22601 | -0.86143 | 7784 ft | 275 kts | 252° |
| 2026-05-07 15:22 | 51.22028 | -0.89063 | 8745 ft | 277 kts | 251° |
| 2026-05-07 15:22 | 51.21449 | -0.92015 | 9686 ft | 280 kts | 251° |
| 2026-05-07 15:22 | 51.20773 | -0.94946 | 10509 ft | 283 kts | 241° |
| 2026-05-07 15:22 | 51.19664 | -0.97531 | 11324 ft | 284 kts | 226° |
| 2026-05-07 15:23 | 51.18222 | -0.99827 | 11726 ft | 304 kts | 223° |
| 2026-05-07 15:23 | 51.16643 | -1.02258 | 11974 ft | 326 kts | 223° |
| 2026-05-07 15:23 | 51.14984 | -1.04796 | 12547 ft | 335 kts | 223° |
| 2026-05-07 15:23 | 51.13308 | -1.07351 | 13253 ft | 340 kts | 223° |
| 2026-05-07 15:24 | 51.11589 | -1.09972 | 13979 ft | 344 kts | 223° |
| 2026-05-07 15:24 | 51.09858 | -1.12616 | 14650 ft | 347 kts | 223° |
| 2026-05-07 15:24 | 51.08108 | -1.15295 | 15317 ft | 350 kts | 223° |
| 2026-05-07 15:24 | 51.06349 | -1.17989 | 15984 ft | 353 kts | 224° |
| 2026-05-07 15:25 | 51.04571 | -1.20711 | 16640 ft | 356 kts | 224° |
| 2026-05-07 15:25 | 51.02919 | -1.23240 | 17256 ft | 358 kts | 224° |
| 2026-05-07 15:25 | 51.01139 | -1.25957 | 17913 ft | 361 kts | 224° |
| 2026-05-07 15:25 | 50.99317 | -1.28730 | 18542 ft | 364 kts | 224° |
| 2026-05-07 15:26 | 50.97483 | -1.31519 | 19124 ft | 367 kts | 224° |
| 2026-05-07 15:26 | 50.95546 | -1.34185 | 19703 ft | 371 kts | 216° |
| 2026-05-07 15:26 | 50.93325 | -1.36290 | 20273 ft | 375 kts | 208° |
| 2026-05-07 15:26 | 50.90986 | -1.38153 | 20828 ft | 377 kts | 208° |
| 2026-05-07 15:27 | 50.88630 | -1.40025 | 21390 ft | 380 kts | 208° |
| 2026-05-07 15:27 | 50.86256 | -1.41911 | 21911 ft | 383 kts | 208° |
| 2026-05-07 15:27 | 50.83866 | -1.43816 | 22457 ft | 386 kts | 208° |
| 2026-05-07 15:27 | 50.81466 | -1.45730 | 22931 ft | 389 kts | 208° |
| 2026-05-07 15:28 | 50.79075 | -1.47632 | 23038 ft | 393 kts | 207° |
| 2026-05-07 15:28 | 50.76617 | -1.49581 | 23062 ft | 397 kts | 207° |
| 2026-05-07 15:28 | 50.74146 | -1.51538 | 23058 ft | 398 kts | 207° |
| 2026-05-07 15:28 | 50.71674 | -1.53499 | 23055 ft | 398 kts | 207° |
| 2026-05-07 15:29 | 50.69192 | -1.55469 | 23059 ft | 399 kts | 207° |
| 2026-05-07 15:29 | 50.66713 | -1.57430 | 23050 ft | 399 kts | 207° |
| 2026-05-07 15:29 | 50.64236 | -1.59386 | 23060 ft | 399 kts | 207° |
| 2026-05-07 15:29 | 50.61756 | -1.61338 | 23057 ft | 399 kts | 207° |
| 2026-05-07 15:30 | 50.59274 | -1.63288 | 23058 ft | 399 kts | 207° |
| 2026-05-07 15:30 | 50.56797 | -1.65237 | 23057 ft | 399 kts | 207° |
| 2026-05-07 15:30 | 50.54350 | -1.67164 | 23056 ft | 398 kts | 207° |
| 2026-05-07 15:30 | 50.51879 | -1.69106 | 23051 ft | 398 kts | 207° |
| 2026-05-07 15:31 | 50.49403 | -1.71049 | 23050 ft | 398 kts | 207° |
| 2026-05-07 15:31 | 50.46922 | -1.72994 | 23046 ft | 398 kts | 207° |
| 2026-05-07 15:31 | 50.44442 | -1.74931 | 23044 ft | 398 kts | 207° |
| 2026-05-07 15:31 | 50.41960 | -1.76867 | 23049 ft | 398 kts | 207° |
| 2026-05-07 15:32 | 50.39483 | -1.78796 | 23042 ft | 398 kts | 207° |
| 2026-05-07 15:32 | 50.37005 | -1.80725 | 23039 ft | 398 kts | 207° |
| 2026-05-07 15:32 | 50.34528 | -1.82653 | 23040 ft | 398 kts | 207° |
| 2026-05-07 15:32 | 50.32052 | -1.84581 | 23050 ft | 397 kts | 207° |
| 2026-05-07 15:33 | 50.29610 | -1.86482 | 23043 ft | 397 kts | 207° |
| 2026-05-07 15:33 | 50.27135 | -1.88405 | 23039 ft | 397 kts | 207° |
| 2026-05-07 15:33 | 50.24661 | -1.90325 | 23043 ft | 397 kts | 207° |
| 2026-05-07 15:33 | 50.22191 | -1.92238 | 23046 ft | 397 kts | 207° |
| 2026-05-07 15:34 | 50.19719 | -1.94151 | 23040 ft | 397 kts | 207° |
| 2026-05-07 15:34 | 50.17246 | -1.96062 | 23031 ft | 397 kts | 207° |
| 2026-05-07 15:34 | 50.14772 | -1.97966 | 23030 ft | 396 kts | 207° |
| 2026-05-07 15:34 | 50.12297 | -1.99867 | 23026 ft | 396 kts | 207° |
| 2026-05-07 15:35 | 50.09824 | -2.01767 | 23024 ft | 396 kts | 207° |
| 2026-05-07 15:35 | 50.07381 | -2.03641 | 23030 ft | 396 kts | 207° |
| 2026-05-07 15:35 | 50.04909 | -2.05537 | 23016 ft | 395 kts | 207° |
| 2026-05-07 15:35 | 50.02479 | -2.07402 | 22762 ft | 384 kts | 207° |
| 2026-05-07 15:36 | 50.00109 | -2.09217 | 22491 ft | 377 kts | 206° |
| 2026-05-07 15:36 | 49.97693 | -2.10732 | 22219 ft | 374 kts | 198° |
| 2026-05-07 15:36 | 49.95170 | -2.11708 | 21951 ft | 373 kts | 193° |
| 2026-05-07 15:36 | 49.92642 | -2.12558 | 21680 ft | 371 kts | 193° |
| 2026-05-07 15:37 | 49.90126 | -2.13409 | 21413 ft | 369 kts | 193° |
| 2026-05-07 15:37 | 49.87620 | -2.14262 | 21151 ft | 368 kts | 193° |
| 2026-05-07 15:37 | 49.85155 | -2.15107 | 20894 ft | 366 kts | 193° |
| 2026-05-07 15:37 | 49.82668 | -2.15960 | 20643 ft | 365 kts | 194° |
| 2026-05-07 15:38 | 49.80198 | -2.16807 | 20379 ft | 363 kts | 194° |
| 2026-05-07 15:38 | 49.77750 | -2.17644 | 19959 ft | 357 kts | 194° |
| 2026-05-07 15:38 | 49.75334 | -2.18465 | 19468 ft | 354 kts | 194° |
| 2026-05-07 15:38 | 49.72934 | -2.19276 | 18978 ft | 351 kts | 194° |
| 2026-05-07 15:39 | 49.70559 | -2.20085 | 18470 ft | 349 kts | 194° |
| 2026-05-07 15:39 | 49.68210 | -2.21010 | 17895 ft | 347 kts | 197° |
| 2026-05-07 15:39 | 49.65892 | -2.22032 | 17369 ft | 344 kts | 198° |
| 2026-05-07 15:39 | 49.63637 | -2.23074 | 16852 ft | 342 kts | 198° |
| 2026-05-07 15:40 | 49.61368 | -2.24135 | 16326 ft | 340 kts | 198° |
| 2026-05-07 15:40 | 49.59103 | -2.25188 | 15802 ft | 339 kts | 198° |
| 2026-05-07 15:40 | 49.56843 | -2.26221 | 15270 ft | 338 kts | 197° |
| 2026-05-07 15:40 | 49.54590 | -2.27233 | 14744 ft | 337 kts | 197° |
| 2026-05-07 15:41 | 49.52348 | -2.28232 | 14223 ft | 335 kts | 197° |
| 2026-05-07 15:41 | 49.50110 | -2.29228 | 13670 ft | 334 kts | 197° |
| 2026-05-07 15:41 | 49.47883 | -2.30215 | 13101 ft | 332 kts | 197° |
| 2026-05-07 15:41 | 49.45674 | -2.31194 | 12576 ft | 329 kts | 197° |
| 2026-05-07 15:42 | 49.43483 | -2.32164 | 12057 ft | 327 kts | 197° |
| 2026-05-07 15:42 | 49.41381 | -2.33301 | 11547 ft | 323 kts | 208° |
| 2026-05-07 15:42 | 49.39672 | -2.35489 | 11045 ft | 322 kts | 231° |
| 2026-05-07 15:42 | 49.38518 | -2.38423 | 10553 ft | 321 kts | 240° |
| 2026-05-07 15:43 | 49.37491 | -2.41456 | 10065 ft | 320 kts | 240° |
| 2026-05-07 15:43 | 49.36487 | -2.44490 | 9546 ft | 318 kts | 240° |
| 2026-05-07 15:43 | 49.35495 | -2.47516 | 9004 ft | 317 kts | 240° |
| 2026-05-07 15:43 | 49.34504 | -2.50533 | 8490 ft | 316 kts | 240° |
| 2026-05-07 15:44 | 49.33521 | -2.53521 | 8125 ft | 310 kts | 240° |
| 2026-05-07 15:44 | 49.32590 | -2.56354 | 7824 ft | 293 kts | 240° |
| 2026-05-07 15:44 | 49.31692 | -2.59094 | 7322 ft | 283 kts | 240° |
| 2026-05-07 15:44 | 49.30823 | -2.61746 | 6825 ft | 274 kts | 240° |
| 2026-05-07 15:45 | 49.29979 | -2.64322 | 6330 ft | 267 kts | 240° |
| 2026-05-07 15:45 | 49.29153 | -2.66850 | 5812 ft | 264 kts | 240° |
| 2026-05-07 15:45 | 49.28143 | -2.69156 | 5197 ft | 259 kts | 222° |
| 2026-05-07 15:45 | 49.26657 | -2.70636 | 4564 ft | 256 kts | 199° |
| 2026-05-07 15:46 | 49.23169 | -2.70256 | 3307 ft | 268 kts | 150° |
| 2026-05-07 15:46 | 49.21816 | -2.68391 | 3126 ft | 258 kts | 127° |
| 2026-05-07 15:46 | 49.21090 | -2.65951 | 2990 ft | 248 kts | 104° |
| 2026-05-07 15:47 | 49.20852 | -2.63440 | 2849 ft | 229 kts | 100° |
| 2026-05-07 15:47 | 49.20652 | -2.61091 | 2755 ft | 217 kts | 100° |
| 2026-05-07 15:47 | 49.20461 | -2.58861 | 2638 ft | 207 kts | 101° |
| 2026-05-07 15:47 | 49.20278 | -2.56735 | 2544 ft | 197 kts | 100° |
| 2026-05-07 15:48 | 49.20104 | -2.54710 | 2456 ft | 186 kts | 101° |
| 2026-05-07 15:48 | 49.19943 | -2.52837 | 2365 ft | 172 kts | 101° |
| 2026-05-07 15:48 | 49.19793 | -2.51120 | 2263 ft | 157 kts | 102° |
| 2026-05-07 15:48 | 49.19653 | -2.49519 | 2127 ft | 148 kts | 102° |
| 2026-05-07 15:49 | 49.19519 | -2.48003 | 2049 ft | 141 kts | 102° |
| 2026-05-07 15:49 | 49.19389 | -2.46536 | 2015 ft | 138 kts | 102° |
| 2026-05-07 15:49 | 49.19260 | -2.45090 | 2013 ft | 137 kts | 102° |
| 2026-05-07 15:49 | 49.19131 | -2.43635 | 2013 ft | 138 kts | 102° |
| 2026-05-07 15:50 | 49.19003 | -2.42175 | 2022 ft | 138 kts | 101° |
| 2026-05-07 15:50 | 49.19015 | -2.40702 | 2016 ft | 140 kts | 89° |
| 2026-05-07 15:50 | 49.19134 | -2.39263 | 2027 ft | 136 kts | 88° |
| 2026-05-07 15:50 | 49.19255 | -2.37829 | 2015 ft | 135 kts | 88° |
| 2026-05-07 15:51 | 49.19374 | -2.36412 | 2011 ft | 134 kts | 88° |
| 2026-05-07 15:51 | 49.19494 | -2.35005 | 2006 ft | 133 kts | 87° |
| 2026-05-07 15:51 | 49.19613 | -2.33599 | 1912 ft | 134 kts | 88° |
| 2026-05-07 15:51 | 49.19732 | -2.32188 | 1780 ft | 134 kts | 88° |
| 2026-05-07 15:52 | 49.19851 | -2.30785 | 1622 ft | 133 kts | 88° |
| 2026-05-07 15:52 | 49.19970 | -2.29375 | 1449 ft | 134 kts | 88° |
| 2026-05-07 15:52 | 49.20089 | -2.27960 | 1279 ft | 134 kts | 87° |
| 2026-05-07 15:52 | 49.20206 | -2.26581 | 1090 ft | 133 kts | 87° |
| 2026-05-07 15:53 | 49.20323 | -2.25187 | 911 ft | 132 kts | 87° |
| 2026-05-07 15:53 | 49.20440 | -2.23799 | 736 ft | 131 kts | 86° |
| 2026-05-07 15:53 | 49.20554 | -2.22431 | 563 ft | 129 kts | 86° |
| 2026-05-07 15:53 | 49.20672 | -2.21076 | 391 ft | 129 kts | 86° |
| 2026-05-07 15:54 | 49.20778 | -2.19771 | 285 ft | 113 kts | 83° |
| 2026-05-07 15:54 | 49.20856 | -2.18901 | 281 ft | 34 kts | 83° |
| 2026-05-07 15:54 | 49.20877 | -2.18601 | 281 ft | 22 kts | 83° |
| 2026-05-07 15:54 | 49.20886 | -2.18472 | 280 ft | 11 kts | 92° |
| 2026-05-07 15:55 | 49.20840 | -2.18380 | 282 ft | 11 kts | 160° |
| 2026-05-07 15:55 | 49.20774 | -2.18410 | 283 ft | 6 kts | 219° |
| 2026-05-07 15:55 | 49.20754 | -2.18437 | 283 ft | 5 kts | 224° |
| 2026-05-07 15:55 | 49.20751 | -2.18441 | 283 ft | 0 kts | 226° |
| 2026-05-07 15:56 | 49.20744 | -2.18457 | 283 ft | 3 kts | 238° |
| 2026-05-07 15:56 | 49.20735 | -2.18502 | 287 ft | 6 kts | 259° |
| 2026-05-07 15:56 | 49.20727 | -2.18576 | 282 ft | 8 kts | 262° |
| 2026-05-07 15:57 | 49.20718 | -2.18679 | 286 ft | 11 kts | 263° |
| 2026-05-07 15:57 | 49.20708 | -2.18813 | 282 ft | 14 kts | 263° |
| 2026-05-07 15:57 | 49.20694 | -2.18975 | 282 ft | 17 kts | 263° |
| 2026-05-07 15:57 | 49.20689 | -2.19043 | 282 ft | 3 kts | 263° |
| 2026-05-07 15:58 | 49.20685 | -2.19087 | 282 ft | 6 kts | 262° |
| 2026-05-07 15:58 | 49.20680 | -2.19162 | 282 ft | 8 kts | 270° |
| 2026-05-07 15:58 | 49.20690 | -2.19265 | 281 ft | 11 kts | 283° |
| 2026-05-07 15:58 | 49.20704 | -2.19347 | 281 ft | 13 kts | 283° |
| 2026-05-07 15:59 | 49.20697 | -2.19543 | 281 ft | 13 kts | 258° |
| 2026-05-07 15:59 | 49.20660 | -2.19647 | 281 ft | 10 kts | 221° |
| 2026-05-07 15:59 | 49.20614 | -2.19736 | 281 ft | 12 kts | 258° |
| 2026-05-07 15:59 | 49.20609 | -2.19795 | 281 ft | 6 kts | 264° |
| 2026-05-07 16:00 | 49.20604 | -2.19839 | 284 ft | 4 kts | 253° |
| 2026-05-07 16:00 | 49.20589 | -2.19860 | 281 ft | 5 kts | 209° |
| 2026-05-07 16:00 | 49.20565 | -2.19862 | 281 ft | 3 kts | 175° |
| 2026-05-07 16:00 | 49.20554 | -2.19860 | 281 ft | 1 kts | 175° |
| 2026-05-07 16:01 | 49.20544 | -2.19859 | 281 ft | 2 kts | 175° |
| 2026-05-07 16:01 | 49.20543 | -2.19859 | 281 ft | 0 kts | 175° |